Terminal Aerodrome Forecast
Issued by NWS Wilmington, OH

Current Version | Previous Version | Graphics & Text | Print | Product List | Glossary On
Versions: 1 2 3 4 5 6 7 8 9 10 11 12 13 14 15 16 17 18 19 20 21
000
FTUS41 KILN 242000 AAA
TAFCVG
TAF AMD
KCVG 242050Z 2421/2524 17012G18KT P6SM SCT060 SCT250
     FM250000 16009KT P6SM BKN200
     FM251300 21016G25KT P6SM VCSH SCT040 BKN080=

USA.gov is the U.S. government's official web portal to all federal, state and local government web resources and services.